createdAt,value
2018-08-13T00:01:03.077Z,3.10
2018-08-13T00:03:31.601Z,3.10
2018-08-13T00:06:00.118Z,3.20
2018-08-13T00:08:28.684Z,3.00
2018-08-13T00:10:57.148Z,3.07
2018-08-13T00:13:25.621Z,3.37
2018-08-13T00:15:54.124Z,2.93
2018-08-13T00:18:22.648Z,3.10
2018-08-13T00:20:51.186Z,3.20
2018-08-13T00:23:19.704Z,3.03
2018-08-13T00:25:48.196Z,3.20
2018-08-13T00:28:16.731Z,3.07
2018-08-13T00:30:45.265Z,3.40
2018-08-13T00:33:13.756Z,2.97
2018-08-13T00:35:42.296Z,3.27
2018-08-13T00:38:10.789Z,3.17
2018-08-13T00:40:39.306Z,3.30
2018-08-13T00:43:08.024Z,3.03
2018-08-13T00:45:36.541Z,3.20
2018-08-13T00:48:05.165Z,3.10
2018-08-13T00:50:33.695Z,3.17
2018-08-13T00:53:02.202Z,3.23
2018-08-13T00:55:31.073Z,3.40
2018-08-13T00:57:59.546Z,3.10
2018-08-13T01:00:28.045Z,3.10
2018-08-13T01:02:56.574Z,3.33
2018-08-13T01:05:25.117Z,3.73
2018-08-13T01:07:53.604Z,3.23
2018-08-13T01:10:22.826Z,3.03
2018-08-13T01:12:51.316Z,3.07
2018-08-13T01:15:20.610Z,3.40
2018-08-13T01:17:50.088Z,3.13
2018-08-13T01:20:19.946Z,3.50
2018-08-13T01:22:48.481Z,3.40
2018-08-13T01:25:18.338Z,3.10
2018-08-13T01:27:46.861Z,3.13
2018-08-13T01:30:16.881Z,3.60
2018-08-13T01:32:45.345Z,3.10
2018-08-13T01:35:13.888Z,3.10
2018-08-13T01:37:42.598Z,3.40
2018-08-13T01:40:12.045Z,3.30
2018-08-13T01:42:40.513Z,3.10
2018-08-13T01:45:11.649Z,3.03
2018-08-13T01:47:40.815Z,2.90
2018-08-13T01:50:11.613Z,3.10
2018-08-13T01:52:40.674Z,2.90
2018-08-13T01:55:10.051Z,3.23
2018-08-13T01:57:38.573Z,3.27
2018-08-13T02:00:09.226Z,3.40
2018-08-13T02:02:37.781Z,3.37
2018-08-13T02:05:06.808Z,3.30
2018-08-13T02:07:35.345Z,3.30
2018-08-13T02:10:03.910Z,3.30
2018-08-13T02:12:32.459Z,3.30
2018-08-13T02:15:01.012Z,3.50
2018-08-13T02:17:29.473Z,3.43
2018-08-13T02:19:58.005Z,3.50
2018-08-13T02:22:26.472Z,3.60
2018-08-13T02:24:55.016Z,3.40
2018-08-13T02:27:23.465Z,3.50
2018-08-13T02:29:52.002Z,3.33
2018-08-13T02:32:20.505Z,3.70
2018-08-13T02:34:49.024Z,3.80
2018-08-13T02:37:17.629Z,3.40
2018-08-13T02:39:46.180Z,3.60
2018-08-13T02:42:14.653Z,3.77
2018-08-13T02:44:43.189Z,3.60
2018-08-13T02:47:11.751Z,3.40
2018-08-13T02:49:40.209Z,3.77
2018-08-13T02:52:08.722Z,3.70
2018-08-13T02:54:37.207Z,3.90
2018-08-13T02:57:06.565Z,3.90
2018-08-13T02:59:35.066Z,3.70
2018-08-13T03:02:03.600Z,3.90
2018-08-13T03:04:32.192Z,4.17
2018-08-13T03:07:00.681Z,4.03
2018-08-13T03:09:29.201Z,3.87
2018-08-13T03:11:57.703Z,3.63
2018-08-13T03:14:26.127Z,3.90
2018-08-13T03:16:54.617Z,3.53
2018-08-13T03:19:23.094Z,3.80
2018-08-13T03:21:51.585Z,3.80
2018-08-13T03:24:20.106Z,4.00
2018-08-13T03:26:48.589Z,4.20
2018-08-13T03:29:17.072Z,3.90
2018-08-13T03:31:45.645Z,4.03
2018-08-13T03:34:14.142Z,3.80
2018-08-13T03:36:43.091Z,3.70
2018-08-13T03:39:13.129Z,4.10
2018-08-13T03:41:42.573Z,3.90
2018-08-13T03:44:11.825Z,3.70
2018-08-13T03:46:40.317Z,3.80
2018-08-13T03:49:10.249Z,4.70
2018-08-13T03:51:38.752Z,4.50
2018-08-13T03:54:07.238Z,4.13
2018-08-13T03:56:35.776Z,4.10
2018-08-13T03:59:04.270Z,4.80
2018-08-13T04:01:32.861Z,4.23
2018-08-13T04:04:01.329Z,4.20
2018-08-13T04:06:29.946Z,4.53
2018-08-13T04:08:58.439Z,4.63
2018-08-13T04:11:26.981Z,4.47
2018-08-13T04:13:55.445Z,5.63
2018-08-13T04:16:23.976Z,4.40
2018-08-13T04:18:52.880Z,4.80
2018-08-13T04:21:21.434Z,4.33
2018-08-13T04:23:50.604Z,4.83
2018-08-13T04:26:19.079Z,4.67
2018-08-13T04:28:47.534Z,4.40
2018-08-13T04:31:16.041Z,4.37
2018-08-13T04:33:44.481Z,4.43
2018-08-13T04:36:12.997Z,4.77
2018-08-13T04:38:41.529Z,4.60
2018-08-13T04:41:10.082Z,4.70
2018-08-13T04:46:30.550Z,4.93
2018-08-13T04:48:59.094Z,5.10
2018-08-13T04:51:27.589Z,4.83
2018-08-13T04:53:56.091Z,4.53
2018-08-13T04:56:24.565Z,4.97
2018-08-13T04:58:53.137Z,4.60
2018-08-13T05:01:21.574Z,4.20
2018-08-13T05:03:50.096Z,4.60
2018-08-13T05:06:18.603Z,4.30
2018-08-13T05:08:48.877Z,4.73
2018-08-13T05:11:17.479Z,4.40
2018-08-13T05:13:46.106Z,4.60
2018-08-13T05:16:14.613Z,4.43
2018-08-13T05:18:43.322Z,4.33
2018-08-13T05:21:11.856Z,4.30
2018-08-13T05:23:40.324Z,4.50
2018-08-13T05:26:09.100Z,4.73
2018-08-13T05:28:38.442Z,5.07
2018-08-13T05:31:06.986Z,4.97
2018-08-13T05:33:36.432Z,5.00
2018-08-13T05:36:04.987Z,4.90
2018-08-13T05:38:33.526Z,5.30
2018-08-13T05:41:02.054Z,5.20
2018-08-13T05:43:30.790Z,5.30
2018-08-13T05:46:00.102Z,4.90
2018-08-13T05:48:28.609Z,5.10
2018-08-13T05:50:57.094Z,5.00
2018-08-13T05:53:25.627Z,4.80
2018-08-13T05:55:54.152Z,4.57
2018-08-13T05:58:22.655Z,4.90
2018-08-13T06:00:51.140Z,4.77
2018-08-13T06:03:19.638Z,4.97
2018-08-13T06:05:48.126Z,5.33
2018-08-13T06:08:16.670Z,5.30
2018-08-13T06:10:45.144Z,4.97
2018-08-13T06:13:13.647Z,4.70
2018-08-13T06:15:42.157Z,5.37
2018-08-13T06:18:10.742Z,5.23
2018-08-13T06:20:39.197Z,4.90
2018-08-13T06:23:07.727Z,4.60
2018-08-13T06:25:36.194Z,4.73
2018-08-13T06:28:04.822Z,4.30
2018-08-13T06:30:33.318Z,4.70
2018-08-13T06:33:01.862Z,4.20
2018-08-13T06:35:30.375Z,4.37
2018-08-13T06:37:58.910Z,4.60
2018-08-13T06:40:27.412Z,4.70
2018-08-13T06:42:55.958Z,4.87
2018-08-13T06:45:24.455Z,4.37
2018-08-13T06:47:52.972Z,4.30
2018-08-13T06:50:21.510Z,4.63
2018-08-13T06:52:50.005Z,4.57
2018-08-13T06:55:18.554Z,4.70
2018-08-13T06:57:47.019Z,4.70
2018-08-13T07:00:15.588Z,4.57
2018-08-13T07:02:44.061Z,4.90
2018-08-13T07:05:12.566Z,4.57
2018-08-13T07:07:41.770Z,4.77
2018-08-13T07:10:12.290Z,5.10
2018-08-13T07:12:42.494Z,4.70
2018-08-13T07:15:11.422Z,4.40
2018-08-13T07:17:39.961Z,4.20
2018-08-13T07:20:11.699Z,4.40
2018-08-13T07:22:40.340Z,4.20
2018-08-13T07:25:09.585Z,4.13
2018-08-13T07:27:39.922Z,4.57
2018-08-13T07:30:10.533Z,4.60
2018-08-13T07:32:39.001Z,4.30
2018-08-13T07:35:08.119Z,3.97
2018-08-13T07:37:36.613Z,4.12
2018-08-13T07:40:07.142Z,3.83
2018-08-13T07:42:35.594Z,3.80
2018-08-13T07:45:04.810Z,3.98
2018-08-13T07:47:33.329Z,4.20
2018-08-13T07:50:01.817Z,4.67
2018-08-13T07:52:30.254Z,3.95
2018-08-13T07:54:58.779Z,4.67
2018-08-13T07:57:27.262Z,4.53
2018-08-13T07:59:55.807Z,4.08
2018-08-13T08:02:24.302Z,4.08
2018-08-13T08:04:52.790Z,4.35
2018-08-13T08:07:21.303Z,4.55
2018-08-13T08:09:49.851Z,4.67
2018-08-13T08:12:18.394Z,4.37
2018-08-13T08:14:46.958Z,3.98
2018-08-13T08:17:15.458Z,4.22
2018-08-13T08:19:43.987Z,3.83
2018-08-13T08:22:12.499Z,4.42
2018-08-13T08:24:41.039Z,4.12
2018-08-13T08:27:09.798Z,3.85
2018-08-13T08:29:39.323Z,3.90
2018-08-13T08:32:07.828Z,4.05
2018-08-13T08:34:36.385Z,3.60
2018-08-13T08:37:04.987Z,3.72
2018-08-13T08:39:33.499Z,3.47
2018-08-13T08:42:02.096Z,3.80
2018-08-13T08:44:30.658Z,3.83
2018-08-13T08:46:59.158Z,3.83
2018-08-13T08:49:27.675Z,3.98
2018-08-13T08:51:56.233Z,4.15
2018-08-13T08:54:24.734Z,3.85
2018-08-13T08:56:53.279Z,3.80
2018-08-13T08:59:24.863Z,3.72
2018-08-13T09:01:53.419Z,4.00
2018-08-13T09:04:21.929Z,3.95
2018-08-13T09:06:52.706Z,3.90
2018-08-13T09:09:21.174Z,3.67
2018-08-13T09:11:49.722Z,3.45
2018-08-13T09:14:18.295Z,3.80
2018-08-13T09:16:48.795Z,3.30
2018-08-13T09:19:28.611Z,3.58
2018-08-13T09:22:11.034Z,3.50
2018-08-13T09:24:50.822Z,4.10
2018-08-13T09:27:30.645Z,3.27
2018-08-13T09:30:10.278Z,3.02
2018-08-13T09:32:49.826Z,3.65
2018-08-13T09:35:21.614Z,3.33
2018-08-13T09:37:51.064Z,3.42
2018-08-13T09:40:19.635Z,4.10
2018-08-13T09:42:48.242Z,3.98
2018-08-13T09:45:16.827Z,3.80
2018-08-13T09:47:45.401Z,3.50
2018-08-13T09:50:16.477Z,4.50
2018-08-13T09:52:45.821Z,4.55
2018-08-13T09:55:15.080Z,3.85
2018-08-13T09:57:45.211Z,4.40
2018-08-13T10:00:20.561Z,3.70
2018-08-13T10:02:49.874Z,3.95
2018-08-13T10:05:18.606Z,3.55
2018-08-13T10:07:47.515Z,3.35
2018-08-13T10:10:16.924Z,3.47
2018-08-13T10:12:46.132Z,3.55
2018-08-13T10:15:15.119Z,3.72
2018-08-13T10:17:43.752Z,3.35
2018-08-13T10:20:14.499Z,3.30
2018-08-13T10:22:43.698Z,3.50
2018-08-13T10:25:12.907Z,3.27
2018-08-13T10:27:41.821Z,3.50
2018-08-13T10:30:11.656Z,3.40
2018-08-13T10:32:40.834Z,3.50
2018-08-13T10:35:09.590Z,3.50
2018-08-13T10:37:38.729Z,3.10
2018-08-13T10:40:09.733Z,3.22
2018-08-13T10:42:38.622Z,3.05
2018-08-13T10:45:07.443Z,4.08
2018-08-13T10:47:35.939Z,3.70
2018-08-13T10:50:05.295Z,3.15
2018-08-13T10:52:34.001Z,3.20
2018-08-13T10:55:02.597Z,3.30
2018-08-13T10:57:31.090Z,3.05
2018-08-13T10:59:59.568Z,3.12
2018-08-13T11:02:28.031Z,3.60
2018-08-13T11:04:56.601Z,3.10
2018-08-13T11:07:25.054Z,3.30
2018-08-13T11:09:53.558Z,3.30
2018-08-13T11:12:22.088Z,3.25
2018-08-13T11:14:50.589Z,3.35
2018-08-13T11:17:19.114Z,2.75
2018-08-13T11:19:47.617Z,2.70
2018-08-13T11:22:16.089Z,2.92
2018-08-13T11:24:44.597Z,3.30
2018-08-13T11:27:13.860Z,3.85
2018-08-13T11:29:44.428Z,2.67
2018-08-13T11:32:13.078Z,2.60
2018-08-13T11:34:42.443Z,2.62
2018-08-13T11:37:11.375Z,2.52
2018-08-13T11:39:39.943Z,2.40
2018-08-13T11:42:08.474Z,2.95
2018-08-13T11:44:36.989Z,3.22
2018-08-13T11:47:05.441Z,2.40
2018-08-13T11:49:33.909Z,2.55
2018-08-13T11:52:02.426Z,2.45
2018-08-13T11:54:30.938Z,2.40
2018-08-13T11:56:59.366Z,2.10
2018-08-13T12:00:56.993Z,2.50
2018-08-13T12:03:25.495Z,2.65
2018-08-13T12:05:53.987Z,2.40
2018-08-13T12:08:22.490Z,2.33
2018-08-13T12:10:50.990Z,2.35
2018-08-13T12:13:19.493Z,2.30
2018-08-13T12:15:48.014Z,2.20
2018-08-13T12:18:16.501Z,2.30
2018-08-13T12:20:45.046Z,2.40
2018-08-13T12:23:13.578Z,2.50
2018-08-13T12:25:42.110Z,2.65
2018-08-13T12:28:10.590Z,2.27
2018-08-13T12:30:39.065Z,2.10
2018-08-13T12:33:07.565Z,2.30
2018-08-13T12:35:36.331Z,2.30
2018-08-13T12:38:04.888Z,2.20
2018-08-13T12:40:33.426Z,2.20
2018-08-13T12:43:01.907Z,2.35
2018-08-13T12:45:30.438Z,2.15
2018-08-13T12:47:58.880Z,2.22
2018-08-13T12:50:27.390Z,1.92
2018-08-13T12:52:55.914Z,2.15
2018-08-13T12:55:24.419Z,2.20
2018-08-13T12:57:52.931Z,2.12
2018-08-13T13:00:21.471Z,2.20
2018-08-13T13:02:49.980Z,2.50
2018-08-13T13:05:19.038Z,2.22
2018-08-13T13:07:47.558Z,2.30
2018-08-13T13:10:17.238Z,2.22
2018-08-13T13:12:46.022Z,2.12
2018-08-13T13:15:16.250Z,2.05
2018-08-13T13:17:44.768Z,2.20
2018-08-13T13:20:15.310Z,2.12
2018-08-13T13:22:43.797Z,2.05
2018-08-13T13:25:12.313Z,2.02
2018-08-13T13:27:40.803Z,2.30
2018-08-13T13:30:11.900Z,2.10
2018-08-13T13:32:40.486Z,1.95
2018-08-13T13:35:10.563Z,2.10
2018-08-13T13:37:39.069Z,2.17
2018-08-13T13:40:09.451Z,2.08
2018-08-13T13:42:38.401Z,2.10
2018-08-13T13:45:07.335Z,1.95
2018-08-13T13:47:35.957Z,2.20
2018-08-13T13:50:04.981Z,2.12
2018-08-13T13:52:35.246Z,2.10
2018-08-13T13:55:03.870Z,2.00
2018-08-13T13:57:32.373Z,2.40
2018-08-13T14:00:00.898Z,2.10
2018-08-13T14:02:29.743Z,2.20
2018-08-13T14:04:58.275Z,2.00
2018-08-13T14:07:26.849Z,2.27
2018-08-13T14:09:55.329Z,2.15
2018-08-13T14:12:23.840Z,2.33
2018-08-13T14:14:53.177Z,2.22
2018-08-13T14:17:22.128Z,2.25
2018-08-13T14:19:50.638Z,2.30
2018-08-13T14:22:19.169Z,2.20
2018-08-13T14:24:47.664Z,2.22
2018-08-13T14:27:16.171Z,2.30
2018-08-13T14:29:44.686Z,2.50
2018-08-13T14:32:13.178Z,2.77
2018-08-13T14:34:41.741Z,2.77
2018-08-13T14:37:10.250Z,2.50
2018-08-13T14:39:38.779Z,2.60
2018-08-13T14:42:07.384Z,2.45
2018-08-13T14:44:35.873Z,2.65
2018-08-13T14:47:04.760Z,2.80
2018-08-13T14:49:33.268Z,2.40
2018-08-13T14:52:01.815Z,2.70
2018-08-13T14:54:32.072Z,2.77
2018-08-13T14:57:00.804Z,2.60
2018-08-13T14:59:29.465Z,2.60
2018-08-13T15:01:58.010Z,2.72
2018-08-13T15:04:26.823Z,2.62
2018-08-13T15:06:57.124Z,2.77
2018-08-13T15:09:25.870Z,2.70
2018-08-13T15:11:54.438Z,2.70
2018-08-13T15:14:22.941Z,2.52
2018-08-13T15:16:51.448Z,2.50
2018-08-13T15:19:19.962Z,2.42
2018-08-13T15:21:48.451Z,2.20
2018-08-13T15:24:16.935Z,2.52
2018-08-13T15:26:45.441Z,2.42
2018-08-13T15:29:13.895Z,2.40
2018-08-13T15:31:42.442Z,2.20
2018-08-13T15:34:10.918Z,2.00
2018-08-13T15:36:39.415Z,2.47
2018-08-13T15:39:10.169Z,2.40
2018-08-13T15:41:38.721Z,2.00
2018-08-13T15:44:07.222Z,2.30
2018-08-13T15:46:35.722Z,2.35
2018-08-13T15:49:04.249Z,2.10
2018-08-13T15:51:32.794Z,2.00
2018-08-13T15:54:01.286Z,2.17
2018-08-13T15:56:29.753Z,2.35
2018-08-13T15:58:58.242Z,2.12
2018-08-13T16:01:26.757Z,1.60
2018-08-13T16:03:55.302Z,1.77
2018-08-13T16:06:23.825Z,1.70
2018-08-13T16:08:52.297Z,1.77
2018-08-13T16:11:20.766Z,1.80
2018-08-13T16:13:49.302Z,2.00
2018-08-13T16:16:17.809Z,1.70
2018-08-13T16:18:46.320Z,1.82
2018-08-13T16:21:14.802Z,2.08
2018-08-13T16:23:43.305Z,2.20
2018-08-13T16:26:11.774Z,2.20
2018-08-13T16:28:40.266Z,2.40
2018-08-13T16:31:08.730Z,2.43
2018-08-13T16:33:37.274Z,2.63
2018-08-13T16:36:05.828Z,2.37
2018-08-13T16:38:34.313Z,2.10
2018-08-13T16:41:02.829Z,2.23
2018-08-13T16:43:31.462Z,2.17
2018-08-13T16:45:59.982Z,2.20
2018-08-13T16:48:28.501Z,2.10
2018-08-13T16:50:57.011Z,2.50
2018-08-13T16:53:25.506Z,2.57
2018-08-13T16:55:54.026Z,2.13
2018-08-13T16:58:22.615Z,2.40
2018-08-13T17:00:51.119Z,2.80
2018-08-13T17:03:19.755Z,2.37
2018-08-13T17:05:48.341Z,2.33
2018-08-13T17:08:16.987Z,2.70
2018-08-13T17:10:45.434Z,2.67
2018-08-13T17:13:13.995Z,2.63
2018-08-13T17:15:42.513Z,2.30
2018-08-13T17:18:11.139Z,3.20
2018-08-13T17:20:41.289Z,2.30
2018-08-13T17:23:10.025Z,2.70
2018-08-13T17:25:38.629Z,2.60
2018-08-13T17:28:07.273Z,2.83
2018-08-13T17:30:35.777Z,3.00
2018-08-13T17:33:04.461Z,3.17
2018-08-13T17:35:34.469Z,3.20
2018-08-13T17:38:04.378Z,3.47
2018-08-13T17:40:32.919Z,3.60
2018-08-13T17:43:01.627Z,3.90
2018-08-13T17:45:30.022Z,3.90
2018-08-13T17:47:58.582Z,3.97
2018-08-13T17:50:27.106Z,4.70
2018-08-13T17:52:55.618Z,4.40
2018-08-13T17:55:24.170Z,5.43
2018-08-13T17:57:52.738Z,5.00
2018-08-13T18:00:23.549Z,5.37
2018-08-13T18:02:52.149Z,5.60
2018-08-13T18:05:23.170Z,6.53
2018-08-13T18:07:52.214Z,6.17
2018-08-13T18:10:23.454Z,5.43
2018-08-13T18:12:51.991Z,5.93
2018-08-13T18:15:20.638Z,6.23
2018-08-13T18:17:49.305Z,6.23
2018-08-13T18:20:17.838Z,6.10
2018-08-13T18:22:46.545Z,6.00
2018-08-13T18:25:15.585Z,6.30
2018-08-13T18:27:45.388Z,6.57
2018-08-13T18:30:24.140Z,6.27
2018-08-13T18:32:53.252Z,6.50
2018-08-13T18:35:21.806Z,6.80
2018-08-13T18:37:50.347Z,7.77
2018-08-13T18:40:22.100Z,7.20
2018-08-13T18:42:50.818Z,6.73
2018-08-13T18:45:19.484Z,7.07
2018-08-13T18:47:48.774Z,7.43
2018-08-13T18:50:18.595Z,7.50
2018-08-13T18:52:47.258Z,7.20
2018-08-13T18:55:17.250Z,7.93
2018-08-13T18:57:46.027Z,7.83
2018-08-13T19:00:17.167Z,8.83
2018-08-13T19:02:45.743Z,8.07
2018-08-13T19:05:15.597Z,8.00
2018-08-13T19:07:44.935Z,13.83
2018-08-13T19:10:14.539Z,16.27
2018-08-13T19:12:43.108Z,11.10
2018-08-13T19:15:13.485Z,9.70
2018-08-13T19:17:42.040Z,11.77
2018-08-13T19:20:12.447Z,11.40
2018-08-13T19:22:41.060Z,8.00
2018-08-13T19:25:14.621Z,6.80
2018-08-13T19:27:43.595Z,8.60
2018-08-13T19:30:13.951Z,6.67
2018-08-13T19:32:42.558Z,6.20
2018-08-13T19:35:11.417Z,5.87
2018-08-13T19:37:40.421Z,7.47
2018-08-13T19:40:12.291Z,7.30
2018-08-13T19:42:40.821Z,6.10
2018-08-13T19:45:10.854Z,5.93
2018-08-13T19:47:39.438Z,5.73
2018-08-13T19:50:09.552Z,6.10
2018-08-13T19:52:41.699Z,7.73
2018-08-13T19:55:12.281Z,6.23
2018-08-13T19:57:41.175Z,6.53
2018-08-13T20:00:14.234Z,5.43
2018-08-13T20:02:42.747Z,7.90
2018-08-13T20:05:11.244Z,7.47
2018-08-13T20:07:39.782Z,6.40
2018-08-13T20:10:10.630Z,5.00
2018-08-13T20:12:39.142Z,5.67
2018-08-13T20:15:07.766Z,5.80
2018-08-13T20:17:36.248Z,5.30
2018-08-13T20:20:05.769Z,5.60
2018-08-13T20:22:34.353Z,5.40
2018-08-13T20:25:03.053Z,5.50
2018-08-13T20:27:31.657Z,5.50
2018-08-13T20:30:00.166Z,5.93
2018-08-13T20:32:28.715Z,5.67
2018-08-13T20:34:57.333Z,5.47
2018-08-13T20:37:26.235Z,5.80
2018-08-13T20:39:54.809Z,6.03
2018-08-13T20:42:23.484Z,6.70
2018-08-13T20:44:52.029Z,6.83
2018-08-13T20:47:21.314Z,7.17
2018-08-13T20:49:49.846Z,7.33
2018-08-13T20:52:18.378Z,6.77
2018-08-13T20:54:47.031Z,6.57
2018-08-13T20:57:15.612Z,7.53
2018-08-13T20:59:44.179Z,7.37
2018-08-13T21:02:16.343Z,7.67
2018-08-13T21:04:44.876Z,8.07
2018-08-13T21:07:13.479Z,7.40
2018-08-13T21:09:42.132Z,7.87
2018-08-13T21:12:10.662Z,8.30
2018-08-13T21:14:39.859Z,8.37
2018-08-13T21:17:08.539Z,7.53
2018-08-13T21:19:37.490Z,7.60
2018-08-13T21:22:06.062Z,7.37
2018-08-13T21:24:37.505Z,7.87
2018-08-13T21:27:06.067Z,8.10
2018-08-13T21:29:34.674Z,8.23
2018-08-13T21:32:03.259Z,8.50
2018-08-13T21:34:31.829Z,8.43
2018-08-13T21:37:00.983Z,8.13
2018-08-13T21:39:29.515Z,8.40
2018-08-13T21:41:58.103Z,9.03
2018-08-13T21:44:26.590Z,8.87
2018-08-13T21:46:55.127Z,8.77
2018-08-13T21:49:23.666Z,8.80
2018-08-13T21:51:52.193Z,9.40
2018-08-13T21:54:20.665Z,9.37
2018-08-13T21:56:51.358Z,10.50
2018-08-13T21:59:19.879Z,11.90
2018-08-13T22:01:48.430Z,11.70
2018-08-13T22:04:18.258Z,9.40
2018-08-13T22:06:46.806Z,10.03
2018-08-13T22:09:15.383Z,9.37
2018-08-13T22:11:44.004Z,8.10
2018-08-13T22:14:12.607Z,8.17
2018-08-13T22:16:41.174Z,8.17
2018-08-13T22:19:12.663Z,10.03
2018-08-13T22:21:41.167Z,8.53
2018-08-13T22:24:20.686Z,7.90
2018-08-13T22:26:49.243Z,8.40
2018-08-13T22:29:17.750Z,8.70
2018-08-13T22:31:46.297Z,10.10
2018-08-13T22:34:14.846Z,12.90
2018-08-13T22:36:43.429Z,9.00
2018-08-13T22:39:11.953Z,9.20
2018-08-13T22:41:40.505Z,9.23
2018-08-13T22:44:09.105Z,9.33
2018-08-13T22:46:37.602Z,9.37
2018-08-13T22:49:06.291Z,9.63
2018-08-13T22:51:34.805Z,9.37
2018-08-13T22:54:03.423Z,10.30
2018-08-13T22:56:31.953Z,9.37
2018-08-13T22:59:06.987Z,9.70
2018-08-13T23:01:35.519Z,9.20
2018-08-13T23:04:04.081Z,9.60
2018-08-13T23:06:32.585Z,9.50
2018-08-13T23:09:01.126Z,9.83
2018-08-13T23:11:29.632Z,9.43
2018-08-13T23:14:00.078Z,9.73
2018-08-13T23:16:28.601Z,9.07
2018-08-13T23:18:57.151Z,9.70
2018-08-13T23:21:25.695Z,9.87
2018-08-13T23:23:54.217Z,9.10
2018-08-13T23:26:22.712Z,9.27
2018-08-13T23:28:51.267Z,9.60
2018-08-13T23:31:19.757Z,10.03
2018-08-13T23:33:48.266Z,9.97
2018-08-13T23:36:16.768Z,9.53
2018-08-13T23:38:45.274Z,8.87
2018-08-13T23:41:13.775Z,9.80
2018-08-13T23:43:42.306Z,10.07
2018-08-13T23:46:10.777Z,9.80
2018-08-13T23:48:39.788Z,9.77
2018-08-13T23:51:08.762Z,9.90
2018-08-13T23:53:39.564Z,9.60
2018-08-13T23:56:09.583Z,9.30
2018-08-13T23:58:38.270Z,10.20
